createdAt,value
2018-08-11T00:00:41.280Z,22.38
2018-08-11T00:03:09.649Z,22.24
2018-08-11T00:05:38.024Z,22.19
2018-08-11T00:08:06.393Z,22.18
2018-08-11T00:10:34.782Z,22.18
2018-08-11T00:13:03.058Z,21.84
2018-08-11T00:15:31.219Z,21.86
2018-08-11T00:17:59.498Z,21.63
2018-08-11T00:20:28.488Z,21.63
2018-08-11T00:22:56.800Z,21.50
2018-08-11T00:25:24.947Z,21.56
2018-08-11T00:27:53.324Z,21.58
2018-08-11T00:30:21.680Z,21.67
2018-08-11T00:32:49.965Z,21.83
2018-08-11T00:35:18.133Z,21.69
2018-08-11T00:37:46.317Z,21.63
2018-08-11T00:40:17.187Z,21.74
2018-08-11T00:42:46.406Z,21.74
2018-08-11T00:45:15.134Z,21.64
2018-08-11T00:47:43.472Z,21.57
2018-08-11T00:50:13.975Z,21.47
2018-08-11T00:52:42.325Z,21.41
2018-08-11T00:55:12.022Z,21.57
2018-08-11T00:57:40.153Z,21.63
2018-08-11T01:00:11.488Z,21.73
2018-08-11T01:02:40.192Z,21.61
2018-08-11T01:05:10.614Z,21.52
2018-08-11T01:07:39.042Z,21.53
2018-08-11T01:10:08.086Z,21.41
2018-08-11T01:12:36.309Z,21.49
2018-08-11T01:15:05.354Z,21.32
2018-08-11T01:17:33.682Z,21.20
2018-08-11T01:20:01.958Z,20.95
2018-08-11T01:22:30.226Z,20.87
2018-08-11T01:24:58.597Z,20.97
2018-08-11T01:27:26.981Z,21.09
2018-08-11T01:29:55.161Z,21.10
2018-08-11T01:32:23.231Z,21.04
2018-08-11T01:34:51.505Z,20.94
2018-08-11T01:37:19.769Z,20.57
2018-08-11T01:39:48.054Z,20.45
2018-08-11T01:42:16.217Z,20.44
2018-08-11T01:44:44.611Z,20.38
2018-08-11T01:47:12.782Z,20.36
2018-08-11T01:49:40.938Z,20.25
2018-08-11T01:52:09.118Z,20.46
2018-08-11T01:54:37.293Z,20.36
2018-08-11T01:57:05.664Z,20.56
2018-08-11T01:59:33.842Z,20.48
2018-08-11T02:02:01.985Z,20.41
2018-08-11T02:04:30.389Z,20.23
2018-08-11T02:06:58.597Z,20.33
2018-08-11T02:09:26.948Z,20.14
2018-08-11T02:11:55.118Z,20.08
2018-08-11T02:14:23.286Z,20.11
2018-08-11T02:16:51.465Z,20.12
2018-08-11T02:19:19.637Z,20.15
2018-08-11T02:21:47.817Z,20.36
2018-08-11T02:24:16.090Z,20.54
2018-08-11T02:26:44.360Z,20.54
2018-08-11T02:29:12.542Z,20.28
2018-08-11T02:31:40.714Z,20.21
2018-08-11T02:34:08.989Z,20.37
2018-08-11T02:36:37.167Z,20.53
2018-08-11T02:39:08.601Z,20.61
2018-08-11T02:41:36.947Z,20.53
2018-08-11T02:44:05.166Z,20.76
2018-08-11T02:46:33.446Z,20.56
2018-08-11T02:49:01.624Z,20.46
2018-08-11T02:51:29.787Z,20.45
2018-08-11T02:53:57.542Z,20.51
2018-08-11T02:56:25.617Z,20.69
2018-08-11T02:58:53.885Z,20.18
2018-08-11T03:01:22.066Z,20.32
2018-08-11T03:03:50.347Z,20.32
2018-08-11T03:06:18.722Z,20.31
2018-08-11T03:08:46.895Z,20.36
2018-08-11T03:11:15.170Z,20.34
2018-08-11T03:13:43.218Z,20.22
2018-08-11T03:16:11.421Z,20.36
2018-08-11T03:18:39.669Z,20.31
2018-08-11T03:21:07.861Z,20.52
2018-08-11T03:23:36.022Z,20.15
2018-08-11T03:26:04.106Z,20.05
2018-08-11T03:28:32.279Z,20.17
2018-08-11T03:31:00.654Z,19.98
2018-08-11T03:33:28.921Z,20.03
2018-08-11T03:35:57.093Z,20.02
2018-08-11T03:38:25.364Z,19.93
2018-08-11T03:40:53.541Z,19.88
2018-08-11T03:43:21.731Z,19.98
2018-08-11T03:45:49.885Z,19.99
2018-08-11T03:48:18.088Z,19.91
2018-08-11T03:50:46.140Z,19.97
2018-08-11T03:53:14.315Z,20.03
2018-08-11T03:55:42.582Z,19.90
2018-08-11T03:58:10.764Z,19.90
2018-08-11T04:00:38.817Z,20.11
2018-08-11T04:03:07.006Z,20.24
2018-08-11T04:05:35.073Z,19.93
2018-08-11T04:08:03.241Z,20.02
2018-08-11T04:10:31.438Z,20.14
2018-08-11T04:12:59.689Z,20.16
2018-08-11T04:15:27.870Z,20.28
2018-08-11T04:17:56.149Z,20.33
2018-08-11T04:20:24.204Z,20.49
2018-08-11T04:22:52.393Z,20.48
2018-08-11T04:25:20.553Z,20.41
2018-08-11T04:28:40.849Z,20.35
2018-08-11T04:31:09.126Z,20.28
2018-08-11T04:33:37.306Z,20.32
2018-08-11T04:36:05.487Z,20.26
2018-08-11T04:38:33.754Z,20.52
2018-08-11T04:41:01.822Z,20.61
2018-08-11T04:43:29.998Z,20.51
2018-08-11T04:45:58.171Z,20.63
2018-08-11T04:48:26.346Z,20.85
2018-08-11T04:50:54.405Z,20.80
2018-08-11T04:53:22.689Z,20.94
2018-08-11T04:55:50.857Z,21.09
2018-08-11T04:58:18.913Z,21.12
2018-08-11T05:00:47.212Z,21.24
2018-08-11T05:03:15.253Z,21.17
2018-08-11T05:05:43.445Z,21.27
2018-08-11T05:08:11.294Z,21.38
2018-08-11T05:10:39.481Z,21.55
2018-08-11T05:13:07.658Z,21.56
2018-08-11T05:15:35.930Z,21.72
2018-08-11T05:18:04.205Z,21.81
2018-08-11T05:20:32.388Z,21.83
2018-08-11T05:23:00.659Z,22.08
2018-08-11T05:25:28.733Z,22.25
2018-08-11T05:27:56.914Z,22.25
2018-08-11T05:30:25.174Z,22.21
2018-08-11T05:32:53.145Z,22.32
2018-08-11T05:35:21.317Z,22.61
2018-08-11T05:37:49.494Z,22.69
2018-08-11T05:40:17.549Z,22.57
2018-08-11T05:42:45.630Z,22.59
2018-08-11T05:45:13.905Z,22.80
2018-08-11T05:47:41.647Z,22.98
2018-08-11T05:50:09.847Z,22.91
2018-08-11T05:52:38.117Z,22.98
2018-08-11T05:55:06.298Z,23.02
2018-08-11T05:57:34.574Z,23.02
2018-08-11T06:00:02.817Z,23.34
2018-08-11T06:02:30.685Z,22.92
2018-08-11T06:04:59.185Z,23.21
2018-08-11T06:07:27.362Z,23.24
2018-08-11T06:09:55.348Z,23.22
2018-08-11T06:12:23.392Z,23.46
2018-08-11T06:14:51.681Z,23.46
2018-08-11T06:17:20.062Z,23.56
2018-08-11T06:19:48.225Z,23.91
2018-08-11T06:22:16.500Z,23.78
2018-08-11T06:24:44.768Z,23.73
2018-08-11T06:27:12.749Z,23.84
2018-08-11T06:29:40.965Z,23.76
2018-08-11T06:32:09.105Z,23.76
2018-08-11T06:34:37.136Z,24.03
2018-08-11T06:37:04.966Z,24.00
2018-08-11T06:39:32.684Z,24.04
2018-08-11T06:42:00.853Z,24.22
2018-08-11T06:44:29.033Z,24.26
2018-08-11T06:46:57.226Z,24.12
2018-08-11T06:49:24.977Z,24.14
2018-08-11T06:51:53.149Z,24.14
2018-08-11T06:54:21.419Z,24.24
2018-08-11T06:56:49.693Z,24.32
2018-08-11T06:59:17.657Z,24.48
2018-08-11T07:01:45.841Z,24.57
2018-08-11T07:04:14.010Z,24.91
2018-08-11T07:06:42.194Z,24.90
2018-08-11T07:09:10.830Z,24.71
2018-08-11T07:11:39.138Z,24.54
2018-08-11T07:14:07.222Z,24.85
2018-08-11T07:16:35.601Z,24.77
2018-08-11T07:19:03.874Z,24.77
2018-08-11T07:21:32.141Z,24.65
2018-08-11T07:24:00.322Z,24.83
2018-08-11T07:26:28.535Z,24.74
2018-08-11T07:28:56.771Z,25.06
2018-08-11T07:31:25.055Z,25.05
2018-08-11T07:33:53.218Z,25.06
2018-08-11T07:36:21.460Z,25.20
2018-08-11T07:38:49.560Z,25.29
2018-08-11T07:41:17.728Z,25.09
2018-08-11T07:43:46.113Z,25.10
2018-08-11T07:46:14.382Z,25.29
2018-08-11T07:48:42.523Z,25.46
2018-08-11T07:51:10.525Z,25.49
2018-08-11T07:53:38.698Z,25.68
2018-08-11T07:56:06.980Z,25.70
2018-08-11T07:58:35.153Z,25.91
2018-08-11T08:01:03.420Z,25.84
2018-08-11T08:03:31.489Z,26.01
2018-08-11T08:05:59.770Z,26.04
2018-08-11T08:08:28.043Z,25.98
2018-08-11T08:10:56.109Z,26.13
2018-08-11T08:13:24.195Z,26.19
2018-08-11T08:15:52.466Z,26.12
2018-08-11T08:18:20.543Z,26.08
2018-08-11T08:20:48.917Z,26.21
2018-08-11T08:23:16.670Z,26.08
2018-08-11T08:25:44.437Z,26.19
2018-08-11T08:28:12.514Z,26.31
2018-08-11T08:30:40.258Z,26.39
2018-08-11T08:33:07.992Z,26.48
2018-08-11T08:35:36.205Z,26.74
2018-08-11T08:38:04.486Z,26.74
2018-08-11T08:40:32.754Z,26.73
2018-08-11T08:43:00.939Z,26.71
2018-08-11T08:45:28.997Z,26.81
2018-08-11T08:47:57.281Z,26.81
2018-08-11T08:50:25.452Z,26.79
2018-08-11T08:52:53.328Z,26.84
2018-08-11T08:55:21.485Z,26.82
2018-08-11T08:57:49.557Z,27.13
2018-08-11T09:00:17.624Z,27.11
2018-08-11T09:02:46.592Z,27.07
2018-08-11T09:05:14.689Z,26.87
2018-08-11T09:07:43.282Z,26.84
2018-08-11T09:10:11.394Z,26.84
2018-08-11T09:12:39.734Z,26.90
2018-08-11T09:15:08.061Z,26.98
2018-08-11T09:17:36.274Z,27.07
2018-08-11T09:20:04.658Z,27.24
2018-08-11T09:22:32.934Z,27.23
2018-08-11T09:25:01.212Z,27.04
2018-08-11T09:27:29.382Z,27.11
2018-08-11T09:29:57.749Z,27.21
2018-08-11T09:32:25.939Z,27.38
2018-08-11T09:34:54.308Z,27.41
2018-08-11T09:37:22.372Z,27.43
2018-08-11T09:39:50.662Z,27.58
2018-08-11T09:42:18.726Z,27.59
2018-08-11T09:44:47.006Z,27.41
2018-08-11T09:47:14.746Z,27.37
2018-08-11T09:49:42.938Z,27.44
2018-08-11T09:52:11.162Z,27.51
2018-08-11T09:54:38.954Z,27.59
2018-08-11T09:57:07.145Z,27.47
2018-08-11T09:59:35.304Z,27.55
2018-08-11T10:02:09.017Z,27.42
2018-08-11T10:04:37.194Z,27.52
2018-08-11T10:07:05.369Z,27.69
2018-08-11T10:09:33.140Z,27.78
2018-08-11T10:12:01.310Z,27.88
2018-08-11T10:14:29.587Z,27.64
2018-08-11T10:16:57.304Z,27.67
2018-08-11T10:19:25.626Z,27.77
2018-08-11T10:21:53.954Z,27.71
2018-08-11T10:24:22.174Z,27.60
2018-08-11T10:26:50.651Z,27.64
2018-08-11T10:29:18.929Z,27.94
2018-08-11T10:31:47.297Z,27.96
2018-08-11T10:34:15.473Z,27.72
2018-08-11T10:36:43.704Z,27.53
2018-08-11T10:39:12.504Z,27.55
2018-08-11T10:41:41.028Z,27.67
2018-08-11T10:44:10.023Z,27.80
2018-08-11T10:46:38.378Z,27.98
2018-08-11T10:49:06.821Z,27.96
2018-08-11T10:51:35.161Z,28.18
2018-08-11T10:54:03.430Z,28.28
2018-08-11T10:56:31.562Z,28.12
2018-08-11T10:58:59.769Z,27.90
2018-08-11T11:01:27.913Z,28.03
2018-08-11T11:03:56.114Z,28.18
2018-08-11T11:06:24.282Z,28.01
2018-08-11T11:08:52.466Z,28.09
2018-08-11T11:11:20.637Z,28.12
2018-08-11T11:13:48.702Z,28.14
2018-08-11T11:16:16.887Z,28.10
2018-08-11T11:18:45.156Z,28.20
2018-08-11T11:21:13.340Z,28.20
2018-08-11T11:23:41.502Z,28.14
2018-08-11T11:26:09.662Z,28.23
2018-08-11T11:28:37.847Z,28.37
2018-08-11T11:31:06.021Z,28.57
2018-08-11T11:33:34.094Z,28.68
2018-08-11T11:36:02.267Z,28.69
2018-08-11T11:38:30.535Z,28.64
2018-08-11T11:40:58.701Z,28.65
2018-08-11T11:43:26.949Z,28.62
2018-08-11T11:45:54.957Z,28.72
2018-08-11T11:48:23.018Z,28.55
2018-08-11T11:50:50.801Z,28.58
2018-08-11T11:53:18.949Z,28.78
2018-08-11T11:55:47.125Z,28.70
2018-08-11T11:58:15.309Z,28.68
2018-08-11T12:00:43.485Z,28.53
2018-08-11T12:03:11.752Z,28.27
2018-08-11T12:05:39.976Z,28.24
2018-08-11T12:08:08.108Z,28.32
2018-08-11T12:10:36.269Z,28.21
2018-08-11T12:13:04.442Z,28.33
2018-08-11T12:15:32.621Z,28.28
2018-08-11T12:18:00.677Z,28.58
2018-08-11T12:20:28.961Z,28.47
2018-08-11T12:22:56.689Z,28.25
2018-08-11T12:25:24.766Z,28.45
2018-08-11T12:27:52.965Z,28.45
2018-08-11T12:30:21.050Z,28.45
2018-08-11T12:32:49.112Z,28.40
2018-08-11T12:35:17.296Z,28.43
2018-08-11T12:37:45.280Z,28.33
2018-08-11T12:40:13.321Z,28.45
2018-08-11T12:42:41.497Z,28.42
2018-08-11T12:45:09.779Z,28.22
2018-08-11T12:47:37.953Z,28.30
2018-08-11T12:50:06.120Z,28.26
2018-08-11T12:52:34.298Z,28.37
2018-08-11T12:55:02.565Z,28.33
2018-08-11T12:57:30.635Z,28.37
2018-08-11T12:59:58.918Z,28.54
2018-08-11T13:02:27.193Z,28.66
2018-08-11T13:04:55.461Z,28.50
2018-08-11T13:07:23.847Z,28.58
2018-08-11T13:09:52.024Z,28.42
2018-08-11T13:12:19.746Z,28.50
2018-08-11T13:14:47.492Z,28.48
2018-08-11T13:17:15.241Z,28.74
2018-08-11T13:19:42.968Z,28.66
2018-08-11T13:22:10.706Z,28.62
2018-08-11T13:24:38.437Z,28.54
2018-08-11T13:27:06.174Z,28.84
2018-08-11T13:29:34.462Z,28.80
2018-08-11T13:32:02.712Z,28.82
2018-08-11T13:34:30.432Z,28.87
2018-08-11T13:36:58.140Z,28.93
2018-08-11T13:39:25.881Z,28.95
2018-08-11T13:41:53.608Z,29.12
2018-08-11T13:44:21.931Z,29.01
2018-08-11T13:46:49.992Z,28.89
2018-08-11T13:49:17.788Z,28.99
2018-08-11T13:51:45.533Z,28.98
2018-08-11T13:54:13.974Z,28.82
2018-08-11T13:56:42.086Z,28.92
2018-08-11T13:59:10.457Z,29.16
2018-08-11T14:01:38.630Z,29.26
2018-08-11T14:04:06.809Z,28.99
2018-08-11T14:06:35.087Z,29.07
2018-08-11T14:09:03.461Z,29.08
2018-08-11T14:11:31.777Z,28.89
2018-08-11T14:13:59.903Z,28.89
2018-08-11T14:16:27.981Z,29.07
2018-08-11T14:18:56.370Z,29.01
2018-08-11T14:21:24.739Z,28.92
2018-08-11T14:23:53.118Z,28.90
2018-08-11T14:26:20.858Z,28.81
2018-08-11T14:28:49.054Z,28.78
2018-08-11T14:31:17.438Z,28.76
2018-08-11T14:33:45.306Z,28.91
2018-08-11T14:36:13.374Z,29.15
2018-08-11T14:38:41.803Z,29.03
2018-08-11T14:41:10.053Z,29.11
2018-08-11T14:43:38.293Z,29.24
2018-08-11T14:46:06.969Z,29.06
2018-08-11T14:48:35.155Z,29.06
2018-08-11T14:51:03.520Z,29.20
2018-08-11T14:53:31.493Z,29.04
2018-08-11T14:55:59.674Z,29.14
2018-08-11T14:58:27.839Z,29.31
2018-08-11T15:00:56.023Z,29.18
2018-08-11T15:03:24.398Z,29.08
2018-08-11T15:05:52.570Z,29.06
2018-08-11T15:08:20.951Z,29.03
2018-08-11T15:10:49.092Z,29.05
2018-08-11T15:13:17.194Z,29.03
2018-08-11T15:15:45.476Z,29.02
2018-08-11T15:18:13.743Z,28.83
2018-08-11T15:20:41.900Z,28.66
2018-08-11T15:23:10.073Z,28.60
2018-08-11T15:25:38.262Z,28.71
2018-08-11T15:28:06.528Z,28.70
2018-08-11T15:30:34.619Z,28.64
2018-08-11T15:33:02.972Z,28.78
2018-08-11T15:35:30.763Z,28.67
2018-08-11T15:37:58.913Z,28.84
2018-08-11T15:40:27.170Z,28.73
2018-08-11T15:42:55.174Z,28.51
2018-08-11T15:45:23.337Z,28.58
2018-08-11T15:47:51.717Z,28.30
2018-08-11T15:50:19.818Z,28.26
2018-08-11T15:52:48.201Z,28.29
2018-08-11T15:55:16.460Z,28.28
2018-08-11T15:57:44.216Z,28.22
2018-08-11T16:00:11.962Z,28.17
2018-08-11T16:02:40.255Z,28.08
2018-08-11T16:05:08.518Z,28.04
2018-08-11T16:07:36.269Z,28.09
2018-08-11T16:10:04.498Z,28.30
2018-08-11T16:12:32.261Z,28.17
2018-08-11T16:14:59.991Z,28.11
2018-08-11T16:17:27.734Z,28.12
2018-08-11T16:19:55.450Z,27.98
2018-08-11T16:22:23.200Z,27.89
2018-08-11T16:24:50.942Z,27.83
2018-08-11T16:27:18.705Z,27.77
2018-08-11T16:29:46.453Z,27.54
2018-08-11T16:32:14.219Z,27.50
2018-08-11T16:34:42.030Z,27.48
2018-08-11T16:37:09.830Z,27.33
2018-08-11T16:39:37.571Z,27.30
2018-08-11T16:42:05.444Z,27.31
2018-08-11T16:44:33.201Z,27.38
2018-08-11T16:47:00.941Z,27.40
2018-08-11T16:49:28.690Z,27.36
2018-08-11T16:51:56.425Z,27.17
2018-08-11T16:54:24.194Z,27.13
2018-08-11T16:56:51.934Z,27.16
2018-08-11T16:59:19.743Z,27.20
2018-08-11T17:01:47.478Z,27.11
2018-08-11T17:04:15.227Z,27.05
2018-08-11T17:06:42.957Z,26.88
2018-08-11T17:09:11.455Z,26.83
2018-08-11T17:11:39.184Z,26.67
2018-08-11T17:14:07.602Z,26.80
2018-08-11T17:16:35.645Z,26.80
2018-08-11T17:19:03.434Z,26.89
2018-08-11T17:21:31.164Z,26.68
2018-08-11T17:23:59.150Z,26.57
2018-08-11T17:26:26.891Z,26.57
2018-08-11T17:28:54.606Z,26.48
2018-08-11T17:31:22.332Z,26.51
2018-08-11T17:33:50.079Z,26.42
2018-08-11T17:36:17.865Z,26.57
2018-08-11T17:38:45.781Z,26.52
2018-08-11T17:41:13.959Z,26.69
2018-08-11T17:43:42.026Z,26.36
2018-08-11T17:46:10.190Z,26.42
2018-08-11T17:48:38.366Z,26.42
2018-08-11T17:51:06.655Z,26.23
2018-08-11T17:53:34.714Z,26.14
2018-08-11T17:56:02.490Z,26.08
2018-08-11T17:58:30.754Z,26.04
2018-08-11T18:00:58.929Z,25.89
2018-08-11T18:03:26.789Z,25.84
2018-08-11T18:05:54.870Z,25.99
2018-08-11T18:08:23.029Z,26.01
2018-08-11T18:10:53.378Z,25.84
2018-08-11T18:13:21.632Z,25.80
2018-08-11T18:15:49.917Z,25.70
2018-08-11T18:18:18.200Z,25.70
2018-08-11T18:20:46.357Z,25.67
2018-08-11T18:23:14.529Z,25.63
2018-08-11T18:25:42.813Z,25.49
2018-08-11T18:28:10.985Z,25.46
2018-08-11T18:30:39.253Z,25.43
2018-08-11T18:33:07.429Z,25.48
2018-08-11T18:35:35.298Z,25.48
2018-08-11T18:38:03.571Z,25.33
2018-08-11T18:40:31.654Z,25.28
2018-08-11T18:42:59.604Z,25.27
2018-08-11T18:45:27.778Z,25.13
2018-08-11T18:47:55.849Z,25.11
2018-08-11T18:50:24.225Z,25.04
2018-08-11T18:52:52.510Z,24.96
2018-08-11T18:55:20.583Z,24.95
2018-08-11T18:57:48.753Z,24.96
2018-08-11T19:00:17.709Z,24.91
2018-08-11T19:02:46.123Z,24.92
2018-08-11T19:05:14.397Z,25.05
2018-08-11T19:07:42.816Z,24.98
2018-08-11T19:10:11.187Z,24.97
2018-08-11T19:12:39.625Z,25.12
2018-08-11T19:15:10.053Z,25.11
2018-08-11T19:17:38.441Z,24.94
2018-08-11T19:20:08.260Z,24.84
2018-08-11T19:22:36.530Z,24.91
2018-08-11T19:25:05.110Z,24.87
2018-08-11T19:27:33.387Z,24.80
2018-08-11T19:30:02.037Z,24.83
2018-08-11T19:32:30.364Z,24.85
2018-08-11T19:34:58.517Z,24.86
2018-08-11T19:37:26.893Z,24.77
2018-08-11T19:39:55.274Z,24.71
2018-08-11T19:42:23.554Z,24.74
2018-08-11T19:44:51.305Z,24.75
2018-08-11T19:47:19.578Z,24.74
2018-08-11T19:49:47.862Z,24.71
2018-08-11T19:52:15.680Z,24.76
2018-08-11T19:54:43.949Z,24.74
2018-08-11T19:57:12.186Z,24.78
2018-08-11T19:59:40.046Z,24.62
2018-08-11T20:02:08.310Z,24.53
2018-08-11T20:04:36.594Z,24.48
2018-08-11T20:07:05.109Z,24.51
2018-08-11T20:09:33.298Z,24.59
2018-08-11T20:12:01.409Z,24.42
2018-08-11T20:14:29.690Z,24.27
2018-08-11T20:16:57.849Z,24.29
2018-08-11T20:19:26.107Z,24.21
2018-08-11T20:21:54.309Z,24.17
2018-08-11T20:24:22.382Z,24.15
2018-08-11T20:26:50.662Z,24.02
2018-08-11T20:29:18.827Z,23.82
2018-08-11T20:31:47.109Z,23.83
2018-08-11T20:34:15.381Z,23.87
2018-08-11T20:36:43.350Z,23.86
2018-08-11T20:39:13.093Z,23.82
2018-08-11T20:41:41.237Z,23.73
2018-08-11T20:44:09.608Z,23.72
2018-08-11T20:46:37.892Z,23.70
2018-08-11T20:49:06.270Z,23.76
2018-08-11T20:51:34.548Z,23.75
2018-08-11T20:54:02.930Z,23.69
2018-08-11T20:56:31.182Z,23.62
2018-08-11T20:58:59.473Z,23.69
2018-08-11T21:01:27.640Z,23.72
2018-08-11T21:03:55.712Z,23.72
2018-08-11T21:06:23.995Z,23.75
2018-08-11T21:08:52.242Z,23.83
2018-08-11T21:11:20.654Z,23.75
2018-08-11T21:13:48.909Z,23.50
2018-08-11T21:16:17.105Z,23.34
2018-08-11T21:18:45.271Z,23.20
2018-08-11T21:21:13.544Z,23.14
2018-08-11T21:23:41.852Z,23.09
2018-08-11T21:26:10.000Z,23.02
2018-08-11T21:28:38.266Z,23.00
2018-08-11T21:31:06.445Z,22.91
2018-08-11T21:33:34.714Z,22.84
2018-08-11T21:36:03.093Z,22.83
2018-08-11T21:38:31.259Z,22.80
2018-08-11T21:40:59.224Z,22.92
2018-08-11T21:43:27.509Z,23.00
2018-08-11T21:45:55.894Z,22.86
2018-08-11T21:48:23.961Z,22.79
2018-08-11T21:50:52.124Z,22.67
2018-08-11T21:53:20.388Z,22.56
2018-08-11T21:55:48.588Z,22.36
2018-08-11T21:58:16.883Z,22.39
2018-08-11T22:00:50.436Z,22.34
2018-08-11T22:03:18.294Z,22.33
2018-08-11T22:05:46.494Z,22.34
2018-08-11T22:08:14.761Z,22.29
2018-08-11T22:10:42.943Z,22.17
2018-08-11T22:13:11.094Z,22.08
2018-08-11T22:15:39.424Z,21.96
2018-08-11T22:18:07.553Z,21.80
2018-08-11T22:20:35.841Z,21.92
2018-08-11T22:23:04.208Z,21.91
2018-08-11T22:25:32.690Z,21.77
2018-08-11T22:28:01.079Z,21.75
2018-08-11T22:30:28.849Z,21.59
2018-08-11T22:32:57.114Z,21.56
2018-08-11T22:35:25.115Z,21.45
2018-08-11T22:37:53.462Z,21.33
2018-08-11T22:40:21.834Z,21.36
2018-08-11T22:42:50.114Z,21.48
2018-08-11T22:45:18.491Z,21.39
2018-08-11T22:47:46.673Z,21.39
2018-08-11T22:50:14.462Z,21.41
2018-08-11T22:52:42.697Z,21.36
2018-08-11T22:55:10.872Z,21.42
2018-08-11T22:57:39.066Z,21.58
2018-08-11T23:00:18.171Z,21.50
2018-08-11T23:02:46.455Z,21.42
2018-08-11T23:05:15.150Z,21.37
2018-08-11T23:07:43.520Z,21.15
2018-08-11T23:10:12.938Z,21.27
2018-08-11T23:12:41.908Z,21.36
2018-08-11T23:15:14.131Z,21.42
2018-08-11T23:17:43.649Z,21.38
2018-08-11T23:20:12.053Z,21.41
2018-08-11T23:22:40.238Z,21.40
2018-08-11T23:25:08.971Z,21.27
2018-08-11T23:27:37.102Z,21.15
2018-08-11T23:30:08.230Z,21.13
2018-08-11T23:32:36.722Z,21.09
2018-08-11T23:35:05.087Z,20.83
2018-08-11T23:37:33.258Z,20.73
2018-08-11T23:40:01.522Z,20.71
2018-08-11T23:42:29.487Z,20.58
2018-08-11T23:44:57.949Z,20.80
2018-08-11T23:47:26.266Z,20.77
2018-08-11T23:49:54.594Z,20.72
2018-08-11T23:52:22.818Z,20.79
2018-08-11T23:54:50.986Z,20.41
2018-08-11T23:57:19.370Z,20.75
2018-08-11T23:59:47.538Z,20.77
